sensor_id;sensor_type;location;lat;lon;timestamp;P1;durP1;ratioP1;P2;durP2;ratioP2
68449;SDS011;67758;39.572;2.652;2024-03-22T00:00:18;10.70;;;3.75;;
68449;SDS011;67758;39.572;2.652;2024-03-22T00:02:53;15.95;;;3.40;;
68449;SDS011;67758;39.572;2.652;2024-03-22T00:09:06;9.52;;;3.05;;
68449;SDS011;67758;39.572;2.652;2024-03-22T00:11:35;9.47;;;3.33;;
68449;SDS011;67758;39.572;2.652;2024-03-22T00:14:04;9.20;;;3.20;;
68449;SDS011;67758;39.572;2.652;2024-03-22T00:16:32;15.27;;;3.60;;
68449;SDS011;67758;39.572;2.652;2024-03-22T00:19:01;10.23;;;3.22;;
68449;SDS011;67758;39.572;2.652;2024-03-22T00:21:27;9.33;;;2.10;;
68449;SDS011;67758;39.572;2.652;2024-03-22T00:23:54;10.02;;;3.05;;
68449;SDS011;67758;39.572;2.652;2024-03-22T00:26:20;9.15;;;2.50;;
68449;SDS011;67758;39.572;2.652;2024-03-22T00:28:46;9.45;;;1.92;;
68449;SDS011;67758;39.572;2.652;2024-03-22T00:31:15;6.97;;;1.60;;
68449;SDS011;67758;39.572;2.652;2024-03-22T00:33:41;7.03;;;1.60;;
68449;SDS011;67758;39.572;2.652;2024-03-22T00:36:07;9.48;;;1.60;;
68449;SDS011;67758;39.572;2.652;2024-03-22T00:38:36;8.40;;;2.20;;
68449;SDS011;67758;39.572;2.652;2024-03-22T00:41:06;5.38;;;1.52;;
68449;SDS011;67758;39.572;2.652;2024-03-22T00:43:32;8.23;;;1.70;;
68449;SDS011;67758;39.572;2.652;2024-03-22T00:45:58;11.70;;;1.73;;
68449;SDS011;67758;39.572;2.652;2024-03-22T00:48:28;8.10;;;1.88;;
68449;SDS011;67758;39.572;2.652;2024-03-22T00:50:57;9.80;;;1.90;;
68449;SDS011;67758;39.572;2.652;2024-03-22T00:53:23;8.88;;;1.70;;
68449;SDS011;67758;39.572;2.652;2024-03-22T00:55:51;7.43;;;1.77;;
68449;SDS011;67758;39.572;2.652;2024-03-22T00:58:21;6.47;;;1.43;;
68449;SDS011;67758;39.572;2.652;2024-03-22T01:00:47;7.60;;;1.80;;
68449;SDS011;67758;39.572;2.652;2024-03-22T01:03:21;6.50;;;1.77;;
68449;SDS011;67758;39.572;2.652;2024-03-22T01:05:47;6.88;;;2.00;;
68449;SDS011;67758;39.572;2.652;2024-03-22T01:08:13;7.28;;;1.98;;
68449;SDS011;67758;39.572;2.652;2024-03-22T01:10:38;7.80;;;1.90;;
68449;SDS011;67758;39.572;2.652;2024-03-22T01:13:05;8.70;;;2.10;;
68449;SDS011;67758;39.572;2.652;2024-03-22T01:15:34;7.20;;;2.10;;
68449;SDS011;67758;39.572;2.652;2024-03-22T01:18:04;8.73;;;1.80;;
68449;SDS011;67758;39.572;2.652;2024-03-22T01:20:30;9.53;;;1.97;;
68449;SDS011;67758;39.572;2.652;2024-03-22T01:22:56;8.43;;;1.77;;
68449;SDS011;67758;39.572;2.652;2024-03-22T01:25:21;7.73;;;1.83;;
68449;SDS011;67758;39.572;2.652;2024-03-22T01:27:49;7.32;;;1.58;;
68449;SDS011;67758;39.572;2.652;2024-03-22T01:30:15;5.65;;;1.40;;
68449;SDS011;67758;39.572;2.652;2024-03-22T01:32:41;5.70;;;1.30;;
68449;SDS011;67758;39.572;2.652;2024-03-22T01:35:13;7.28;;;1.67;;
68449;SDS011;67758;39.572;2.652;2024-03-22T01:37:43;6.18;;;1.70;;
68449;SDS011;67758;39.572;2.652;2024-03-22T01:40:09;7.53;;;1.80;;
68449;SDS011;67758;39.572;2.652;2024-03-22T01:42:38;7.38;;;1.67;;
68449;SDS011;67758;39.572;2.652;2024-03-22T01:45:06;6.13;;;2.00;;
68449;SDS011;67758;39.572;2.652;2024-03-22T01:47:34;11.52;;;1.73;;
68449;SDS011;67758;39.572;2.652;2024-03-22T01:50:00;6.57;;;1.88;;
68449;SDS011;67758;39.572;2.652;2024-03-22T01:52:31;5.80;;;1.38;;
68449;SDS011;67758;39.572;2.652;2024-03-22T01:54:57;6.97;;;1.70;;
68449;SDS011;67758;39.572;2.652;2024-03-22T01:57:23;8.27;;;1.77;;
68449;SDS011;67758;39.572;2.652;2024-03-22T01:59:51;8.00;;;1.50;;
68449;SDS011;67758;39.572;2.652;2024-03-22T02:02:20;8.68;;;1.80;;
68449;SDS011;67758;39.572;2.652;2024-03-22T02:04:49;8.93;;;1.80;;
68449;SDS011;67758;39.572;2.652;2024-03-22T02:07:16;7.25;;;1.90;;
68449;SDS011;67758;39.572;2.652;2024-03-22T02:09:41;9.05;;;1.33;;
68449;SDS011;67758;39.572;2.652;2024-03-22T02:12:08;6.47;;;1.20;;
68449;SDS011;67758;39.572;2.652;2024-03-22T02:14:34;11.13;;;1.83;;
68449;SDS011;67758;39.572;2.652;2024-03-22T02:17:00;6.28;;;1.27;;
68449;SDS011;67758;39.572;2.652;2024-03-22T02:19:28;5.20;;;1.37;;
68449;SDS011;67758;39.572;2.652;2024-03-22T02:21:54;7.15;;;1.48;;
68449;SDS011;67758;39.572;2.652;2024-03-22T02:24:19;6.47;;;1.60;;
68449;SDS011;67758;39.572;2.652;2024-03-22T02:26:48;6.15;;;1.40;;
68449;SDS011;67758;39.572;2.652;2024-03-22T02:29:33;6.38;;;1.30;;
68449;SDS011;67758;39.572;2.652;2024-03-22T02:31:59;6.97;;;1.20;;
68449;SDS011;67758;39.572;2.652;2024-03-22T02:34:25;5.77;;;1.17;;
68449;SDS011;67758;39.572;2.652;2024-03-22T02:36:51;9.57;;;1.73;;
68449;SDS011;67758;39.572;2.652;2024-03-22T02:39:16;6.00;;;1.38;;
68449;SDS011;67758;39.572;2.652;2024-03-22T02:41:47;7.30;;;1.50;;
68449;SDS011;67758;39.572;2.652;2024-03-22T02:44:12;7.75;;;1.77;;
68449;SDS011;67758;39.572;2.652;2024-03-22T02:46:41;7.35;;;1.20;;
68449;SDS011;67758;39.572;2.652;2024-03-22T02:49:09;12.07;;;1.75;;
68449;SDS011;67758;39.572;2.652;2024-03-22T02:51:35;8.37;;;1.60;;
68449;SDS011;67758;39.572;2.652;2024-03-22T02:54:01;7.25;;;1.58;;
68449;SDS011;67758;39.572;2.652;2024-03-22T02:56:30;6.03;;;1.20;;
68449;SDS011;67758;39.572;2.652;2024-03-22T02:58:58;9.35;;;1.88;;
68449;SDS011;67758;39.572;2.652;2024-03-22T03:01:24;10.43;;;2.00;;
68449;SDS011;67758;39.572;2.652;2024-03-22T03:03:53;11.25;;;1.50;;
68449;SDS011;67758;39.572;2.652;2024-03-22T03:06:28;9.47;;;1.90;;
68449;SDS011;67758;39.572;2.652;2024-03-22T03:09:03;7.55;;;1.63;;
68449;SDS011;67758;39.572;2.652;2024-03-22T03:11:33;9.98;;;1.73;;
68449;SDS011;67758;39.572;2.652;2024-03-22T03:13:59;8.68;;;1.80;;
68449;SDS011;67758;39.572;2.652;2024-03-22T03:16:28;10.15;;;2.10;;
68449;SDS011;67758;39.572;2.652;2024-03-22T03:18:54;10.50;;;2.10;;
68449;SDS011;67758;39.572;2.652;2024-03-22T03:21:19;9.75;;;1.83;;
68449;SDS011;67758;39.572;2.652;2024-03-22T03:23:45;9.07;;;1.85;;
68449;SDS011;67758;39.572;2.652;2024-03-22T03:26:11;8.40;;;1.60;;
68449;SDS011;67758;39.572;2.652;2024-03-22T03:28:37;8.57;;;1.60;;
68449;SDS011;67758;39.572;2.652;2024-03-22T03:31:06;7.63;;;1.27;;
68449;SDS011;67758;39.572;2.652;2024-03-22T03:33:31;6.85;;;1.70;;
68449;SDS011;67758;39.572;2.652;2024-03-22T03:36:00;10.32;;;1.92;;
68449;SDS011;67758;39.572;2.652;2024-03-22T03:38:25;9.83;;;1.80;;
68449;SDS011;67758;39.572;2.652;2024-03-22T03:40:51;10.10;;;1.88;;
68449;SDS011;67758;39.572;2.652;2024-03-22T03:43:19;13.10;;;1.93;;
68449;SDS011;67758;39.572;2.652;2024-03-22T03:45:45;9.35;;;1.67;;
68449;SDS011;67758;39.572;2.652;2024-03-22T03:48:12;9.02;;;1.88;;
68449;SDS011;67758;39.572;2.652;2024-03-22T03:50:38;13.20;;;1.77;;
68449;SDS011;67758;39.572;2.652;2024-03-22T03:53:07;10.45;;;1.80;;
68449;SDS011;67758;39.572;2.652;2024-03-22T03:55:42;10.20;;;1.27;;
68449;SDS011;67758;39.572;2.652;2024-03-22T03:58:10;5.68;;;1.25;;
68449;SDS011;67758;39.572;2.652;2024-03-22T04:00:38;9.63;;;2.17;;
68449;SDS011;67758;39.572;2.652;2024-03-22T04:03:09;8.73;;;1.77;;
68449;SDS011;67758;39.572;2.652;2024-03-22T04:05:38;12.77;;;1.88;;
68449;SDS011;67758;39.572;2.652;2024-03-22T04:08:04;11.77;;;1.90;;
68449;SDS011;67758;39.572;2.652;2024-03-22T04:10:30;13.52;;;2.22;;
68449;SDS011;67758;39.572;2.652;2024-03-22T04:12:55;9.87;;;1.57;;
68449;SDS011;67758;39.572;2.652;2024-03-22T04:15:21;9.88;;;1.45;;
68449;SDS011;67758;39.572;2.652;2024-03-22T04:17:47;10.57;;;1.93;;
68449;SDS011;67758;39.572;2.652;2024-03-22T04:20:13;9.45;;;1.70;;
68449;SDS011;67758;39.572;2.652;2024-03-22T04:22:42;7.60;;;1.30;;
68449;SDS011;67758;39.572;2.652;2024-03-22T04:25:07;7.93;;;1.53;;
68449;SDS011;67758;39.572;2.652;2024-03-22T04:27:37;10.18;;;1.48;;
68449;SDS011;67758;39.572;2.652;2024-03-22T04:30:06;7.82;;;1.52;;
68449;SDS011;67758;39.572;2.652;2024-03-22T04:32:32;13.88;;;1.45;;
68449;SDS011;67758;39.572;2.652;2024-03-22T04:35:06;8.18;;;1.00;;
68449;SDS011;67758;39.572;2.652;2024-03-22T04:37:34;9.87;;;1.33;;
68449;SDS011;67758;39.572;2.652;2024-03-22T04:40:00;11.32;;;1.63;;
68449;SDS011;67758;39.572;2.652;2024-03-22T04:42:28;8.18;;;1.40;;
68449;SDS011;67758;39.572;2.652;2024-03-22T04:44:54;12.03;;;1.40;;
68449;SDS011;67758;39.572;2.652;2024-03-22T04:47:19;13.80;;;1.45;;
68449;SDS011;67758;39.572;2.652;2024-03-22T04:49:45;11.13;;;1.90;;
68449;SDS011;67758;39.572;2.652;2024-03-22T04:52:11;9.52;;;1.60;;
68449;SDS011;67758;39.572;2.652;2024-03-22T04:54:37;10.90;;;1.70;;
68449;SDS011;67758;39.572;2.652;2024-03-22T04:57:02;11.87;;;1.47;;
68449;SDS011;67758;39.572;2.652;2024-03-22T04:59:28;11.25;;;1.48;;
68449;SDS011;67758;39.572;2.652;2024-03-22T05:01:54;11.50;;;1.43;;
68449;SDS011;67758;39.572;2.652;2024-03-22T05:04:20;9.98;;;1.67;;
68449;SDS011;67758;39.572;2.652;2024-03-22T05:06:45;7.97;;;1.80;;
68449;SDS011;67758;39.572;2.652;2024-03-22T05:09:11;15.63;;;1.80;;
68449;SDS011;67758;39.572;2.652;2024-03-22T05:11:37;10.00;;;1.75;;
68449;SDS011;67758;39.572;2.652;2024-03-22T05:14:02;15.02;;;1.65;;
68449;SDS011;67758;39.572;2.652;2024-03-22T05:16:28;9.90;;;1.90;;
68449;SDS011;67758;39.572;2.652;2024-03-22T05:18:54;9.45;;;1.65;;
68449;SDS011;67758;39.572;2.652;2024-03-22T05:21:21;12.67;;;1.87;;
68449;SDS011;67758;39.572;2.652;2024-03-22T05:23:47;10.20;;;1.77;;
68449;SDS011;67758;39.572;2.652;2024-03-22T05:26:13;11.93;;;1.60;;
68449;SDS011;67758;39.572;2.652;2024-03-22T05:28:38;11.57;;;2.00;;
68449;SDS011;67758;39.572;2.652;2024-03-22T05:31:06;10.63;;;2.00;;
68449;SDS011;67758;39.572;2.652;2024-03-22T05:33:31;14.50;;;1.80;;
68449;SDS011;67758;39.572;2.652;2024-03-22T05:35:57;11.40;;;2.50;;
68449;SDS011;67758;39.572;2.652;2024-03-22T05:38:24;11.30;;;2.38;;
68449;SDS011;67758;39.572;2.652;2024-03-22T05:40:50;11.90;;;1.63;;
68449;SDS011;67758;39.572;2.652;2024-03-22T05:43:18;9.90;;;1.63;;
68449;SDS011;67758;39.572;2.652;2024-03-22T05:45:57;8.90;;;1.70;;
68449;SDS011;67758;39.572;2.652;2024-03-22T05:48:23;9.57;;;1.60;;
68449;SDS011;67758;39.572;2.652;2024-03-22T05:50:48;13.65;;;1.48;;
68449;SDS011;67758;39.572;2.652;2024-03-22T05:53:14;9.27;;;1.80;;
68449;SDS011;67758;39.572;2.652;2024-03-22T05:55:40;14.02;;;2.40;;
68449;SDS011;67758;39.572;2.652;2024-03-22T05:58:10;13.00;;;1.70;;
68449;SDS011;67758;39.572;2.652;2024-03-22T06:00:35;8.67;;;1.80;;
68449;SDS011;67758;39.572;2.652;2024-03-22T06:03:04;12.25;;;2.08;;
68449;SDS011;67758;39.572;2.652;2024-03-22T06:05:33;14.75;;;2.70;;
68449;SDS011;67758;39.572;2.652;2024-03-22T06:07:58;11.07;;;2.23;;
68449;SDS011;67758;39.572;2.652;2024-03-22T06:10:25;11.65;;;2.55;;
68449;SDS011;67758;39.572;2.652;2024-03-22T06:12:51;13.02;;;2.80;;
68449;SDS011;67758;39.572;2.652;2024-03-22T06:20:38;15.10;;;3.33;;
68449;SDS011;67758;39.572;2.652;2024-03-22T06:23:05;11.02;;;2.15;;
68449;SDS011;67758;39.572;2.652;2024-03-22T06:25:36;17.67;;;2.50;;
68449;SDS011;67758;39.572;2.652;2024-03-22T06:28:11;15.23;;;2.65;;
68449;SDS011;67758;39.572;2.652;2024-03-22T06:30:54;13.50;;;2.80;;
68449;SDS011;67758;39.572;2.652;2024-03-22T06:42:36;16.75;;;3.28;;
68449;SDS011;67758;39.572;2.652;2024-03-22T06:45:02;10.53;;;3.17;;
68449;SDS011;67758;39.572;2.652;2024-03-22T06:47:28;17.75;;;4.45;;
68449;SDS011;67758;39.572;2.652;2024-03-22T06:49:54;16.13;;;4.50;;
68449;SDS011;67758;39.572;2.652;2024-03-22T06:52:19;15.57;;;4.83;;
68449;SDS011;67758;39.572;2.652;2024-03-22T06:54:48;20.73;;;4.70;;
68449;SDS011;67758;39.572;2.652;2024-03-22T06:57:18;17.95;;;3.92;;
68449;SDS011;67758;39.572;2.652;2024-03-22T06:59:44;16.60;;;4.10;;
68449;SDS011;67758;39.572;2.652;2024-03-22T07:02:10;17.08;;;3.90;;
68449;SDS011;67758;39.572;2.652;2024-03-22T07:04:45;15.93;;;4.13;;
68449;SDS011;67758;39.572;2.652;2024-03-22T07:07:11;20.05;;;4.65;;
68449;SDS011;67758;39.572;2.652;2024-03-22T07:09:37;17.10;;;5.03;;
68449;SDS011;67758;39.572;2.652;2024-03-22T07:12:03;17.80;;;4.95;;
68449;SDS011;67758;39.572;2.652;2024-03-22T07:14:29;21.27;;;5.47;;
68449;SDS011;67758;39.572;2.652;2024-03-22T07:17:01;22.35;;;4.85;;
68449;SDS011;67758;39.572;2.652;2024-03-22T07:19:39;19.43;;;4.93;;
68449;SDS011;67758;39.572;2.652;2024-03-22T07:22:05;19.38;;;4.75;;
68449;SDS011;67758;39.572;2.652;2024-03-22T07:24:31;14.95;;;4.18;;
68449;SDS011;67758;39.572;2.652;2024-03-22T07:27:00;18.97;;;3.83;;
68449;SDS011;67758;39.572;2.652;2024-03-22T07:29:49;18.95;;;3.50;;
68449;SDS011;67758;39.572;2.652;2024-03-22T07:32:25;18.48;;;3.70;;
68449;SDS011;67758;39.572;2.652;2024-03-22T07:34:51;23.13;;;4.05;;
68449;SDS011;67758;39.572;2.652;2024-03-22T07:37:17;17.67;;;4.07;;
68449;SDS011;67758;39.572;2.652;2024-03-22T07:40:16;19.20;;;3.65;;
68449;SDS011;67758;39.572;2.652;2024-03-22T07:43:08;17.42;;;4.13;;
68449;SDS011;67758;39.572;2.652;2024-03-22T07:45:45;15.23;;;3.50;;
68449;SDS011;67758;39.572;2.652;2024-03-22T07:48:52;17.47;;;3.43;;
68449;SDS011;67758;39.572;2.652;2024-03-22T07:51:20;17.00;;;4.05;;
68449;SDS011;67758;39.572;2.652;2024-03-22T07:53:45;13.95;;;4.00;;
68449;SDS011;67758;39.572;2.652;2024-03-22T07:56:11;17.98;;;3.92;;
68449;SDS011;67758;39.572;2.652;2024-03-22T07:59:14;18.37;;;4.13;;
68449;SDS011;67758;39.572;2.652;2024-03-22T08:01:42;18.98;;;3.45;;
68449;SDS011;67758;39.572;2.652;2024-03-22T08:04:12;14.05;;;4.30;;
68449;SDS011;67758;39.572;2.652;2024-03-22T08:06:38;16.42;;;4.13;;
68449;SDS011;67758;39.572;2.652;2024-03-22T08:09:09;18.47;;;4.30;;
68449;SDS011;67758;39.572;2.652;2024-03-22T08:11:37;24.95;;;4.68;;
68449;SDS011;67758;39.572;2.652;2024-03-22T08:14:13;19.33;;;5.05;;
68449;SDS011;67758;39.572;2.652;2024-03-22T08:16:46;21.50;;;4.88;;
68449;SDS011;67758;39.572;2.652;2024-03-22T08:19:19;16.50;;;4.83;;
68449;SDS011;67758;39.572;2.652;2024-03-22T08:22:07;20.95;;;5.28;;
68449;SDS011;67758;39.572;2.652;2024-03-22T08:24:33;18.70;;;5.05;;
68449;SDS011;67758;39.572;2.652;2024-03-22T08:26:59;17.43;;;5.07;;
68449;SDS011;67758;39.572;2.652;2024-03-22T08:29:39;20.65;;;6.18;;
68449;SDS011;67758;39.572;2.652;2024-03-22T08:32:14;19.77;;;4.72;;
68449;SDS011;67758;39.572;2.652;2024-03-22T08:34:40;20.67;;;6.37;;
68449;SDS011;67758;39.572;2.652;2024-03-22T08:37:05;21.10;;;4.82;;
68449;SDS011;67758;39.572;2.652;2024-03-22T08:39:32;18.10;;;4.50;;
68449;SDS011;67758;39.572;2.652;2024-03-22T08:42:20;18.42;;;5.13;;
68449;SDS011;67758;39.572;2.652;2024-03-22T08:45:14;15.38;;;4.47;;
68449;SDS011;67758;39.572;2.652;2024-03-22T08:47:53;19.25;;;3.88;;
68449;SDS011;67758;39.572;2.652;2024-03-22T08:50:27;13.95;;;3.78;;
68449;SDS011;67758;39.572;2.652;2024-03-22T08:53:19;17.73;;;4.25;;
68449;SDS011;67758;39.572;2.652;2024-03-22T08:56:16;14.80;;;4.28;;
68449;SDS011;67758;39.572;2.652;2024-03-22T08:58:53;24.48;;;4.65;;
68449;SDS011;67758;39.572;2.652;2024-03-22T09:04:38;17.13;;;4.65;;
68449;SDS011;67758;39.572;2.652;2024-03-22T09:07:10;12.13;;;2.80;;
68449;SDS011;67758;39.572;2.652;2024-03-22T09:09:43;18.10;;;4.00;;
68449;SDS011;67758;39.572;2.652;2024-03-22T09:13:01;15.48;;;3.30;;
68449;SDS011;67758;39.572;2.652;2024-03-22T09:19:34;14.52;;;3.65;;
68449;SDS011;67758;39.572;2.652;2024-03-22T09:22:11;21.67;;;3.90;;
68449;SDS011;67758;39.572;2.652;2024-03-22T09:31:39;18.15;;;2.70;;
68449;SDS011;67758;39.572;2.652;2024-03-22T09:34:05;15.10;;;3.35;;
68449;SDS011;67758;39.572;2.652;2024-03-22T09:36:37;11.07;;;3.40;;
68449;SDS011;67758;39.572;2.652;2024-03-22T09:39:29;21.25;;;3.45;;
68449;SDS011;67758;39.572;2.652;2024-03-22T09:42:06;10.27;;;2.75;;
68449;SDS011;67758;39.572;2.652;2024-03-22T09:44:33;12.35;;;3.28;;
68449;SDS011;67758;39.572;2.652;2024-03-22T09:47:07;13.07;;;3.33;;
68449;SDS011;67758;39.572;2.652;2024-03-22T09:49:39;13.23;;;3.13;;
68449;SDS011;67758;39.572;2.652;2024-03-22T09:52:15;15.55;;;3.78;;
68449;SDS011;67758;39.572;2.652;2024-03-22T10:21:03;13.82;;;2.97;;
68449;SDS011;67758;39.572;2.652;2024-03-22T10:23:54;12.47;;;3.27;;
68449;SDS011;67758;39.572;2.652;2024-03-22T10:26:27;10.35;;;2.63;;
68449;SDS011;67758;39.572;2.652;2024-03-22T10:28:53;14.05;;;2.63;;
68449;SDS011;67758;39.572;2.652;2024-03-22T10:31:34;15.32;;;3.15;;
68449;SDS011;67758;39.572;2.652;2024-03-22T10:34:03;11.38;;;2.78;;
68449;SDS011;67758;39.572;2.652;2024-03-22T10:36:31;11.13;;;2.63;;
68449;SDS011;67758;39.572;2.652;2024-03-22T10:39:06;15.93;;;3.35;;
68449;SDS011;67758;39.572;2.652;2024-03-22T10:42:27;13.25;;;2.70;;
68449;SDS011;67758;39.572;2.652;2024-03-22T10:44:55;14.18;;;4.13;;
68449;SDS011;67758;39.572;2.652;2024-03-22T10:47:28;10.93;;;3.28;;
68449;SDS011;67758;39.572;2.652;2024-03-22T10:57:14;10.93;;;3.53;;
68449;SDS011;67758;39.572;2.652;2024-03-22T11:04:09;8.77;;;3.03;;
68449;SDS011;67758;39.572;2.652;2024-03-22T11:06:49;11.30;;;3.30;;
68449;SDS011;67758;39.572;2.652;2024-03-22T11:09:21;7.82;;;3.03;;
68449;SDS011;67758;39.572;2.652;2024-03-22T11:11:48;9.98;;;3.35;;
68449;SDS011;67758;39.572;2.652;2024-03-22T11:14:16;11.18;;;3.40;;
68449;SDS011;67758;39.572;2.652;2024-03-22T11:16:48;6.65;;;3.15;;
68449;SDS011;67758;39.572;2.652;2024-03-22T11:19:21;7.70;;;3.20;;
68449;SDS011;67758;39.572;2.652;2024-03-22T11:21:47;6.82;;;3.38;;
68449;SDS011;67758;39.572;2.652;2024-03-22T11:24:24;9.15;;;4.72;;
68449;SDS011;67758;39.572;2.652;2024-03-22T11:26:51;10.35;;;4.43;;
68449;SDS011;67758;39.572;2.652;2024-03-22T11:29:19;7.87;;;3.93;;
68449;SDS011;67758;39.572;2.652;2024-03-22T11:31:48;10.57;;;3.60;;
68449;SDS011;67758;39.572;2.652;2024-03-22T11:34:18;9.77;;;2.90;;
68449;SDS011;67758;39.572;2.652;2024-03-22T11:36:47;9.65;;;3.40;;
68449;SDS011;67758;39.572;2.652;2024-03-22T11:39:14;7.05;;;3.75;;
68449;SDS011;67758;39.572;2.652;2024-03-22T11:41:43;7.20;;;3.67;;
68449;SDS011;67758;39.572;2.652;2024-03-22T11:44:09;8.20;;;3.45;;
68449;SDS011;67758;39.572;2.652;2024-03-22T11:49:22;10.70;;;3.72;;
68449;SDS011;67758;39.572;2.652;2024-03-22T11:51:57;7.55;;;3.58;;
68449;SDS011;67758;39.572;2.652;2024-03-22T11:54:32;7.80;;;3.58;;
68449;SDS011;67758;39.572;2.652;2024-03-22T11:56:58;8.40;;;3.67;;
68449;SDS011;67758;39.572;2.652;2024-03-22T11:59:26;7.68;;;4.10;;
68449;SDS011;67758;39.572;2.652;2024-03-22T12:01:54;8.40;;;5.40;;
68449;SDS011;67758;39.572;2.652;2024-03-22T12:04:20;8.70;;;3.73;;
68449;SDS011;67758;39.572;2.652;2024-03-22T12:06:48;12.13;;;5.15;;
68449;SDS011;67758;39.572;2.652;2024-03-22T12:09:14;12.03;;;4.20;;
68449;SDS011;67758;39.572;2.652;2024-03-22T12:11:40;9.48;;;3.92;;
68449;SDS011;67758;39.572;2.652;2024-03-22T12:14:06;9.25;;;4.25;;
68449;SDS011;67758;39.572;2.652;2024-03-22T12:16:34;6.53;;;3.10;;
68449;SDS011;67758;39.572;2.652;2024-03-22T12:19:00;9.90;;;4.10;;
68449;SDS011;67758;39.572;2.652;2024-03-22T12:21:25;7.93;;;3.88;;
68449;SDS011;67758;39.572;2.652;2024-03-22T12:23:51;8.17;;;3.23;;
68449;SDS011;67758;39.572;2.652;2024-03-22T12:26:20;12.40;;;3.88;;
68449;SDS011;67758;39.572;2.652;2024-03-22T12:28:45;7.03;;;3.92;;
68449;SDS011;67758;39.572;2.652;2024-03-22T12:31:11;14.32;;;4.30;;
68449;SDS011;67758;39.572;2.652;2024-03-22T12:33:37;6.95;;;3.83;;
68449;SDS011;67758;39.572;2.652;2024-03-22T12:36:03;7.63;;;3.40;;
68449;SDS011;67758;39.572;2.652;2024-03-22T12:38:29;7.63;;;3.45;;
68449;SDS011;67758;39.572;2.652;2024-03-22T12:40:55;7.55;;;3.60;;
68449;SDS011;67758;39.572;2.652;2024-03-22T12:43:22;7.38;;;3.45;;
68449;SDS011;67758;39.572;2.652;2024-03-22T12:45:47;10.50;;;4.23;;
68449;SDS011;67758;39.572;2.652;2024-03-22T12:48:13;10.38;;;4.10;;
68449;SDS011;67758;39.572;2.652;2024-03-22T12:50:39;7.37;;;3.53;;
68449;SDS011;67758;39.572;2.652;2024-03-22T12:53:05;7.18;;;3.55;;
68449;SDS011;67758;39.572;2.652;2024-03-22T12:55:30;7.53;;;3.43;;
68449;SDS011;67758;39.572;2.652;2024-03-22T12:58:01;9.88;;;3.58;;
68449;SDS011;67758;39.572;2.652;2024-03-22T13:00:28;8.27;;;3.70;;
68449;SDS011;67758;39.572;2.652;2024-03-22T13:02:53;13.52;;;3.67;;
68449;SDS011;67758;39.572;2.652;2024-03-22T13:05:19;9.20;;;3.80;;
68449;SDS011;67758;39.572;2.652;2024-03-22T13:07:47;8.40;;;3.47;;
68449;SDS011;67758;39.572;2.652;2024-03-22T13:10:13;9.52;;;3.53;;
68449;SDS011;67758;39.572;2.652;2024-03-22T13:12:39;8.23;;;3.33;;
68449;SDS011;67758;39.572;2.652;2024-03-22T13:15:05;11.43;;;3.20;;
68449;SDS011;67758;39.572;2.652;2024-03-22T13:17:31;9.05;;;3.40;;
68449;SDS011;67758;39.572;2.652;2024-03-22T13:19:59;13.38;;;3.47;;
68449;SDS011;67758;39.572;2.652;2024-03-22T13:22:35;11.00;;;3.10;;
68449;SDS011;67758;39.572;2.652;2024-03-22T13:25:04;11.27;;;3.63;;
68449;SDS011;67758;39.572;2.652;2024-03-22T13:27:35;11.40;;;4.75;;
68449;SDS011;67758;39.572;2.652;2024-03-22T13:30:07;12.07;;;4.20;;
68449;SDS011;67758;39.572;2.652;2024-03-22T13:32:37;12.75;;;3.90;;
68449;SDS011;67758;39.572;2.652;2024-03-22T13:35:04;9.82;;;3.33;;
68449;SDS011;67758;39.572;2.652;2024-03-22T13:37:30;10.68;;;3.53;;
68449;SDS011;67758;39.572;2.652;2024-03-22T13:39:56;9.20;;;3.40;;
68449;SDS011;67758;39.572;2.652;2024-03-22T13:42:22;12.55;;;3.92;;
68449;SDS011;67758;39.572;2.652;2024-03-22T13:44:49;11.68;;;3.30;;
68449;SDS011;67758;39.572;2.652;2024-03-22T13:47:14;10.93;;;3.20;;
68449;SDS011;67758;39.572;2.652;2024-03-22T13:49:40;14.30;;;4.50;;
68449;SDS011;67758;39.572;2.652;2024-03-22T13:52:09;10.40;;;3.53;;
68449;SDS011;67758;39.572;2.652;2024-03-22T13:54:35;8.48;;;2.85;;
68449;SDS011;67758;39.572;2.652;2024-03-22T13:57:01;16.67;;;3.30;;
68449;SDS011;67758;39.572;2.652;2024-03-22T13:59:29;10.97;;;3.37;;
68449;SDS011;67758;39.572;2.652;2024-03-22T14:01:55;11.38;;;3.55;;
68449;SDS011;67758;39.572;2.652;2024-03-22T14:04:25;10.35;;;3.42;;
68449;SDS011;67758;39.572;2.652;2024-03-22T14:06:54;15.68;;;2.90;;
68449;SDS011;67758;39.572;2.652;2024-03-22T14:09:20;10.57;;;3.23;;
68449;SDS011;67758;39.572;2.652;2024-03-22T14:11:48;11.00;;;3.30;;
68449;SDS011;67758;39.572;2.652;2024-03-22T14:14:14;18.13;;;4.30;;
68449;SDS011;67758;39.572;2.652;2024-03-22T14:16:40;13.57;;;3.33;;
68449;SDS011;67758;39.572;2.652;2024-03-22T14:19:09;14.02;;;4.75;;
68449;SDS011;67758;39.572;2.652;2024-03-22T14:21:35;11.00;;;3.25;;
68449;SDS011;67758;39.572;2.652;2024-03-22T14:24:04;37.28;;;10.95;;
68449;SDS011;67758;39.572;2.652;2024-03-22T14:26:30;11.97;;;4.30;;
68449;SDS011;67758;39.572;2.652;2024-03-22T14:28:56;13.02;;;4.18;;
68449;SDS011;67758;39.572;2.652;2024-03-22T14:31:22;8.87;;;3.60;;
68449;SDS011;67758;39.572;2.652;2024-03-22T14:33:48;14.27;;;3.88;;
68449;SDS011;67758;39.572;2.652;2024-03-22T14:36:14;13.50;;;3.87;;
68449;SDS011;67758;39.572;2.652;2024-03-22T14:38:39;9.60;;;3.13;;
68449;SDS011;67758;39.572;2.652;2024-03-22T14:41:08;10.02;;;3.35;;
68449;SDS011;67758;39.572;2.652;2024-03-22T14:43:34;8.53;;;3.37;;
68449;SDS011;67758;39.572;2.652;2024-03-22T14:46:00;10.98;;;3.58;;
68449;SDS011;67758;39.572;2.652;2024-03-22T14:48:28;16.60;;;4.40;;
68449;SDS011;67758;39.572;2.652;2024-03-22T14:50:56;14.20;;;3.75;;
68449;SDS011;67758;39.572;2.652;2024-03-22T14:53:22;13.50;;;3.80;;
68449;SDS011;67758;39.572;2.652;2024-03-22T14:55:57;15.70;;;4.27;;
68449;SDS011;67758;39.572;2.652;2024-03-22T14:58:27;12.75;;;3.85;;
68449;SDS011;67758;39.572;2.652;2024-03-22T15:00:58;12.30;;;4.30;;
68449;SDS011;67758;39.572;2.652;2024-03-22T15:03:29;11.23;;;3.63;;
68449;SDS011;67758;39.572;2.652;2024-03-22T15:05:55;13.27;;;3.30;;
68449;SDS011;67758;39.572;2.652;2024-03-22T15:08:21;11.23;;;3.43;;
68449;SDS011;67758;39.572;2.652;2024-03-22T15:10:48;10.88;;;2.92;;
68449;SDS011;67758;39.572;2.652;2024-03-22T15:13:17;10.70;;;3.17;;
68449;SDS011;67758;39.572;2.652;2024-03-22T15:19:10;14.32;;;4.05;;
68449;SDS011;67758;39.572;2.652;2024-03-22T15:21:36;16.90;;;3.63;;
68449;SDS011;67758;39.572;2.652;2024-03-22T15:24:02;11.73;;;2.92;;
68449;SDS011;67758;39.572;2.652;2024-03-22T15:26:28;17.70;;;3.63;;
68449;SDS011;67758;39.572;2.652;2024-03-22T15:28:54;29.57;;;3.83;;
68449;SDS011;67758;39.572;2.652;2024-03-22T15:31:20;21.20;;;3.60;;
68449;SDS011;67758;39.572;2.652;2024-03-22T15:33:45;10.07;;;3.03;;
68449;SDS011;67758;39.572;2.652;2024-03-22T15:36:13;11.43;;;3.53;;
68449;SDS011;67758;39.572;2.652;2024-03-22T15:38:42;16.98;;;3.40;;
68449;SDS011;67758;39.572;2.652;2024-03-22T15:41:08;20.77;;;3.85;;
68449;SDS011;67758;39.572;2.652;2024-03-22T15:43:35;12.60;;;3.00;;
68449;SDS011;67758;39.572;2.652;2024-03-22T15:46:01;7.72;;;2.83;;
68449;SDS011;67758;39.572;2.652;2024-03-22T15:48:27;12.35;;;2.83;;
68449;SDS011;67758;39.572;2.652;2024-03-22T15:50:55;14.88;;;3.28;;
68449;SDS011;67758;39.572;2.652;2024-03-22T15:53:21;8.85;;;2.92;;
68449;SDS011;67758;39.572;2.652;2024-03-22T15:55:47;10.07;;;3.00;;
68449;SDS011;67758;39.572;2.652;2024-03-22T15:58:12;10.73;;;3.47;;
68449;SDS011;67758;39.572;2.652;2024-03-22T16:00:38;14.20;;;3.40;;
68449;SDS011;67758;39.572;2.652;2024-03-22T16:03:05;10.75;;;2.85;;
68449;SDS011;67758;39.572;2.652;2024-03-22T16:05:31;8.97;;;2.67;;
68449;SDS011;67758;39.572;2.652;2024-03-22T16:07:56;6.93;;;2.15;;